sensor_id;sensor_type;location;lat;lon;timestamp;P1;durP1;ratioP1;P2;durP2;ratioP2
77402;SDS011;66472;53.046;8.656;2023-02-15T00:04:16;52.97;;;31.23;;
77402;SDS011;66472;53.046;8.656;2023-02-15T00:09:12;42.97;;;28.70;;
77402;SDS011;66472;53.046;8.656;2023-02-15T00:14:12;41.80;;;26.00;;
77402;SDS011;66472;53.046;8.656;2023-02-15T00:19:08;53.47;;;25.10;;
77402;SDS011;66472;53.046;8.656;2023-02-15T00:24:04;46.27;;;27.93;;
77402;SDS011;66472;53.046;8.656;2023-02-15T00:29:00;129.17;;;29.83;;
77402;SDS011;66472;53.046;8.656;2023-02-15T00:33:55;131.87;;;28.40;;
77402;SDS011;66472;53.046;8.656;2023-02-15T00:38:51;166.30;;;31.20;;
77402;SDS011;66472;53.046;8.656;2023-02-15T00:43:46;72.87;;;25.00;;
77402;SDS011;66472;53.046;8.656;2023-02-15T00:48:41;240.88;;;31.33;;
77402;SDS011;66472;53.046;8.656;2023-02-15T00:53:36;337.13;;;35.10;;
77402;SDS011;66472;53.046;8.656;2023-02-15T00:58:32;209.03;;;27.83;;
77402;SDS011;66472;53.046;8.656;2023-02-15T01:03:27;55.50;;;21.23;;
77402;SDS011;66472;53.046;8.656;2023-02-15T01:08:23;146.73;;;24.40;;
77402;SDS011;66472;53.046;8.656;2023-02-15T01:13:18;116.60;;;23.40;;
77402;SDS011;66472;53.046;8.656;2023-02-15T01:18:13;110.33;;;23.80;;
77402;SDS011;66472;53.046;8.656;2023-02-15T01:23:10;70.70;;;23.83;;
77402;SDS011;66472;53.046;8.656;2023-02-15T01:28:06;74.03;;;22.17;;
77402;SDS011;66472;53.046;8.656;2023-02-15T01:33:01;130.30;;;25.20;;
77402;SDS011;66472;53.046;8.656;2023-02-15T01:37:59;58.67;;;24.47;;
77402;SDS011;66472;53.046;8.656;2023-02-15T01:42:55;78.33;;;25.63;;
77402;SDS011;66472;53.046;8.656;2023-02-15T01:53:06;45.50;;;20.60;;
77402;SDS011;66472;53.046;8.656;2023-02-15T01:58:03;85.93;;;22.23;;
77402;SDS011;66472;53.046;8.656;2023-02-15T02:02:59;70.63;;;22.00;;
77402;SDS011;66472;53.046;8.656;2023-02-15T02:07:56;30.90;;;22.43;;
77402;SDS011;66472;53.046;8.656;2023-02-15T02:12:52;50.07;;;23.17;;
77402;SDS011;66472;53.046;8.656;2023-02-15T02:18:03;56.30;;;24.53;;
77402;SDS011;66472;53.046;8.656;2023-02-15T02:23:06;113.07;;;26.73;;
77402;SDS011;66472;53.046;8.656;2023-02-15T02:38:19;84.27;;;23.20;;
77402;SDS011;66472;53.046;8.656;2023-02-15T02:48:28;162.13;;;24.67;;
77402;SDS011;66472;53.046;8.656;2023-02-15T02:53:25;67.27;;;21.50;;
77402;SDS011;66472;53.046;8.656;2023-02-15T02:58:31;54.00;;;23.50;;
77402;SDS011;66472;53.046;8.656;2023-02-15T03:03:30;29.33;;;19.60;;
77402;SDS011;66472;53.046;8.656;2023-02-15T03:08:30;44.37;;;22.57;;
77402;SDS011;66472;53.046;8.656;2023-02-15T03:13:27;48.10;;;23.07;;
77402;SDS011;66472;53.046;8.656;2023-02-15T03:18:25;59.27;;;24.80;;
77402;SDS011;66472;53.046;8.656;2023-02-15T03:23:21;55.07;;;23.47;;
77402;SDS011;66472;53.046;8.656;2023-02-15T03:28:19;69.70;;;23.87;;
77402;SDS011;66472;53.046;8.656;2023-02-15T03:33:15;52.47;;;22.83;;
77402;SDS011;66472;53.046;8.656;2023-02-15T03:38:12;52.07;;;24.90;;
77402;SDS011;66472;53.046;8.656;2023-02-15T03:43:14;95.83;;;26.67;;
77402;SDS011;66472;53.046;8.656;2023-02-15T03:48:11;37.63;;;23.53;;
77402;SDS011;66472;53.046;8.656;2023-02-15T03:53:09;43.83;;;23.73;;
77402;SDS011;66472;53.046;8.656;2023-02-15T03:58:06;96.60;;;26.13;;
77402;SDS011;66472;53.046;8.656;2023-02-15T04:08:18;107.17;;;22.70;;
77402;SDS011;66472;53.046;8.656;2023-02-15T04:13:14;79.00;;;25.47;;
77402;SDS011;66472;53.046;8.656;2023-02-15T04:18:09;54.07;;;26.23;;
77402;SDS011;66472;53.046;8.656;2023-02-15T04:23:08;58.50;;;23.53;;
77402;SDS011;66472;53.046;8.656;2023-02-15T04:28:22;104.23;;;26.87;;
77402;SDS011;66472;53.046;8.656;2023-02-15T04:33:17;75.80;;;27.47;;
77402;SDS011;66472;53.046;8.656;2023-02-15T04:38:12;48.97;;;23.67;;
77402;SDS011;66472;53.046;8.656;2023-02-15T04:43:08;66.57;;;22.70;;
77402;SDS011;66472;53.046;8.656;2023-02-15T04:48:03;104.53;;;24.08;;
77402;SDS011;66472;53.046;8.656;2023-02-15T04:52:58;85.50;;;26.40;;
77402;SDS011;66472;53.046;8.656;2023-02-15T04:57:54;37.60;;;21.02;;
77402;SDS011;66472;53.046;8.656;2023-02-15T05:02:49;82.07;;;26.33;;
77402;SDS011;66472;53.046;8.656;2023-02-15T05:07:44;127.57;;;25.97;;
77402;SDS011;66472;53.046;8.656;2023-02-15T05:12:39;73.15;;;24.40;;
77402;SDS011;66472;53.046;8.656;2023-02-15T05:17:35;95.63;;;23.37;;
77402;SDS011;66472;53.046;8.656;2023-02-15T05:22:30;95.97;;;25.97;;
77402;SDS011;66472;53.046;8.656;2023-02-15T05:27:25;97.90;;;24.65;;
77402;SDS011;66472;53.046;8.656;2023-02-15T05:32:39;55.57;;;21.97;;
77402;SDS011;66472;53.046;8.656;2023-02-15T05:37:35;90.63;;;25.20;;
77402;SDS011;66472;53.046;8.656;2023-02-15T05:42:30;72.57;;;24.40;;
77402;SDS011;66472;53.046;8.656;2023-02-15T05:47:25;35.13;;;21.33;;
77402;SDS011;66472;53.046;8.656;2023-02-15T05:52:21;62.03;;;23.20;;
77402;SDS011;66472;53.046;8.656;2023-02-15T05:57:16;35.33;;;24.07;;
77402;SDS011;66472;53.046;8.656;2023-02-15T06:02:11;44.33;;;24.60;;
77402;SDS011;66472;53.046;8.656;2023-02-15T06:07:08;38.50;;;24.13;;
77402;SDS011;66472;53.046;8.656;2023-02-15T06:12:03;36.35;;;24.58;;
77402;SDS011;66472;53.046;8.656;2023-02-15T06:16:58;43.20;;;24.37;;
77402;SDS011;66472;53.046;8.656;2023-02-15T06:21:54;73.57;;;28.17;;
77402;SDS011;66472;53.046;8.656;2023-02-15T06:26:49;61.47;;;25.27;;
77402;SDS011;66472;53.046;8.656;2023-02-15T06:31:44;28.80;;;21.98;;
77402;SDS011;66472;53.046;8.656;2023-02-15T06:36:40;39.17;;;23.10;;
77402;SDS011;66472;53.046;8.656;2023-02-15T06:41:35;26.55;;;22.33;;
77402;SDS011;66472;53.046;8.656;2023-02-15T06:46:30;34.63;;;26.70;;
77402;SDS011;66472;53.046;8.656;2023-02-15T06:51:25;32.00;;;23.13;;
77402;SDS011;66472;53.046;8.656;2023-02-15T06:56:21;27.97;;;24.23;;
77402;SDS011;66472;53.046;8.656;2023-02-15T07:01:16;24.23;;;21.83;;
77402;SDS011;66472;53.046;8.656;2023-02-15T07:06:11;26.55;;;23.77;;
77402;SDS011;66472;53.046;8.656;2023-02-15T07:11:07;25.80;;;22.30;;
77402;SDS011;66472;53.046;8.656;2023-02-15T07:16:21;27.67;;;24.10;;
77402;SDS011;66472;53.046;8.656;2023-02-15T07:21:16;28.63;;;23.20;;
77402;SDS011;66472;53.046;8.656;2023-02-15T07:26:11;29.48;;;25.48;;
77402;SDS011;66472;53.046;8.656;2023-02-15T07:31:07;28.13;;;25.13;;
77402;SDS011;66472;53.046;8.656;2023-02-15T07:36:03;23.80;;;21.37;;
77402;SDS011;66472;53.046;8.656;2023-02-15T07:41:03;30.17;;;26.00;;
77402;SDS011;66472;53.046;8.656;2023-02-15T07:45:59;24.47;;;21.93;;
77402;SDS011;66472;53.046;8.656;2023-02-15T07:50:58;26.23;;;23.10;;
77402;SDS011;66472;53.046;8.656;2023-02-15T07:55:53;24.87;;;22.20;;
77402;SDS011;66472;53.046;8.656;2023-02-15T08:00:49;23.90;;;21.37;;
77402;SDS011;66472;53.046;8.656;2023-02-15T08:05:51;27.07;;;24.27;;
77402;SDS011;66472;53.046;8.656;2023-02-15T08:10:46;31.00;;;26.70;;
77402;SDS011;66472;53.046;8.656;2023-02-15T08:16:01;25.77;;;22.80;;
77402;SDS011;66472;53.046;8.656;2023-02-15T08:20:56;27.03;;;24.10;;
77402;SDS011;66472;53.046;8.656;2023-02-15T08:25:51;27.60;;;24.77;;
77402;SDS011;66472;53.046;8.656;2023-02-15T08:30:47;29.80;;;26.63;;
77402;SDS011;66472;53.046;8.656;2023-02-15T08:35:42;31.10;;;27.77;;
77402;SDS011;66472;53.046;8.656;2023-02-15T08:40:37;32.08;;;29.40;;
77402;SDS011;66472;53.046;8.656;2023-02-15T08:45:33;26.70;;;22.50;;
77402;SDS011;66472;53.046;8.656;2023-02-15T08:50:28;25.30;;;22.83;;
77402;SDS011;66472;53.046;8.656;2023-02-15T08:55:23;20.98;;;19.00;;
77402;SDS011;66472;53.046;8.656;2023-02-15T09:00:19;22.92;;;20.23;;
77402;SDS011;66472;53.046;8.656;2023-02-15T09:05:14;22.60;;;19.20;;
77402;SDS011;66472;53.046;8.656;2023-02-15T09:10:10;21.45;;;18.85;;
77402;SDS011;66472;53.046;8.656;2023-02-15T09:15:05;21.10;;;18.83;;
77402;SDS011;66472;53.046;8.656;2023-02-15T09:20:01;21.67;;;19.57;;
77402;SDS011;66472;53.046;8.656;2023-02-15T09:24:56;19.77;;;17.77;;
77402;SDS011;66472;53.046;8.656;2023-02-15T09:29:51;21.65;;;19.50;;
77402;SDS011;66472;53.046;8.656;2023-02-15T09:34:47;21.17;;;19.07;;
77402;SDS011;66472;53.046;8.656;2023-02-15T09:39:43;25.40;;;18.63;;
77402;SDS011;66472;53.046;8.656;2023-02-15T09:44:57;28.50;;;21.10;;
77402;SDS011;66472;53.046;8.656;2023-02-15T09:50:00;28.37;;;19.20;;
77402;SDS011;66472;53.046;8.656;2023-02-15T10:00:07;24.23;;;20.43;;
77402;SDS011;66472;53.046;8.656;2023-02-15T10:30:37;24.77;;;20.53;;
77402;SDS011;66472;53.046;8.656;2023-02-15T10:40:51;25.00;;;21.07;;
77402;SDS011;66472;53.046;8.656;2023-02-15T11:10:34;21.23;;;17.47;;
77402;SDS011;66472;53.046;8.656;2023-02-15T11:15:39;25.97;;;19.20;;
77402;SDS011;66472;53.046;8.656;2023-02-15T11:20:45;22.97;;;19.23;;
77402;SDS011;66472;53.046;8.656;2023-02-15T11:25:43;23.33;;;20.43;;
77402;SDS011;66472;53.046;8.656;2023-02-15T11:30:43;21.93;;;19.43;;
77402;SDS011;66472;53.046;8.656;2023-02-15T11:35:46;24.57;;;19.10;;
77402;SDS011;66472;53.046;8.656;2023-02-15T11:40:49;26.20;;;19.30;;
77402;SDS011;66472;53.046;8.656;2023-02-15T11:45:46;25.53;;;17.77;;
77402;SDS011;66472;53.046;8.656;2023-02-15T11:50:42;24.47;;;18.90;;
77402;SDS011;66472;53.046;8.656;2023-02-15T11:55:37;24.73;;;18.80;;
77402;SDS011;66472;53.046;8.656;2023-02-15T12:00:40;24.15;;;18.75;;
77402;SDS011;66472;53.046;8.656;2023-02-15T12:05:37;23.90;;;19.37;;
77402;SDS011;66472;53.046;8.656;2023-02-15T12:10:36;25.50;;;19.70;;
77402;SDS011;66472;53.046;8.656;2023-02-15T12:15:33;26.13;;;20.17;;
77402;SDS011;66472;53.046;8.656;2023-02-15T12:20:33;27.70;;;21.03;;
77402;SDS011;66472;53.046;8.656;2023-02-15T12:25:36;25.27;;;20.23;;
77402;SDS011;66472;53.046;8.656;2023-02-15T12:30:34;25.13;;;20.33;;
77402;SDS011;66472;53.046;8.656;2023-02-15T12:35:31;26.67;;;19.80;;
77402;SDS011;66472;53.046;8.656;2023-02-15T12:40:28;26.03;;;20.37;;
77402;SDS011;66472;53.046;8.656;2023-02-15T12:45:28;39.87;;;22.87;;
77402;SDS011;66472;53.046;8.656;2023-02-15T12:50:23;33.13;;;22.40;;
77402;SDS011;66472;53.046;8.656;2023-02-15T12:55:26;29.37;;;22.27;;
77402;SDS011;66472;53.046;8.656;2023-02-15T13:00:25;31.03;;;21.40;;
77402;SDS011;66472;53.046;8.656;2023-02-15T13:05:32;33.37;;;23.07;;
77402;SDS011;66472;53.046;8.656;2023-02-15T13:10:30;34.80;;;22.40;;
77402;SDS011;66472;53.046;8.656;2023-02-15T13:15:34;31.13;;;21.77;;
77402;SDS011;66472;53.046;8.656;2023-02-15T13:20:30;30.43;;;20.93;;
77402;SDS011;66472;53.046;8.656;2023-02-15T13:25:28;30.50;;;22.13;;
77402;SDS011;66472;53.046;8.656;2023-02-15T13:35:19;27.83;;;19.63;;
77402;SDS011;66472;53.046;8.656;2023-02-15T13:55:29;28.73;;;19.30;;
77402;SDS011;66472;53.046;8.656;2023-02-15T14:00:40;27.87;;;18.43;;
77402;SDS011;66472;53.046;8.656;2023-02-15T14:16:10;26.70;;;18.40;;
77402;SDS011;66472;53.046;8.656;2023-02-15T14:26:10;30.80;;;17.37;;
77402;SDS011;66472;53.046;8.656;2023-02-15T14:31:10;27.73;;;18.00;;
77402;SDS011;66472;53.046;8.656;2023-02-15T14:36:07;26.47;;;19.07;;
77402;SDS011;66472;53.046;8.656;2023-02-15T14:41:19;26.00;;;18.40;;
77402;SDS011;66472;53.046;8.656;2023-02-15T14:46:24;26.40;;;17.90;;
77402;SDS011;66472;53.046;8.656;2023-02-15T14:56:35;29.30;;;18.63;;
77402;SDS011;66472;53.046;8.656;2023-02-15T15:01:34;27.40;;;18.23;;
77402;SDS011;66472;53.046;8.656;2023-02-15T15:06:31;30.93;;;17.70;;
77402;SDS011;66472;53.046;8.656;2023-02-15T15:26:34;26.67;;;17.17;;
77402;SDS011;66472;53.046;8.656;2023-02-15T15:46:38;26.80;;;16.83;;
77402;SDS011;66472;53.046;8.656;2023-02-15T15:51:39;24.57;;;16.87;;
77402;SDS011;66472;53.046;8.656;2023-02-15T15:56:34;28.07;;;17.00;;
77402;SDS011;66472;53.046;8.656;2023-02-15T16:01:34;29.03;;;17.67;;
77402;SDS011;66472;53.046;8.656;2023-02-15T16:06:39;23.97;;;16.40;;
77402;SDS011;66472;53.046;8.656;2023-02-15T16:11:34;28.40;;;17.47;;
77402;SDS011;66472;53.046;8.656;2023-02-15T16:16:30;25.27;;;17.50;;
77402;SDS011;66472;53.046;8.656;2023-02-15T16:21:33;25.17;;;16.33;;
77402;SDS011;66472;53.046;8.656;2023-02-15T16:26:36;27.27;;;18.00;;
77402;SDS011;66472;53.046;8.656;2023-02-15T16:31:36;27.53;;;16.73;;
77402;SDS011;66472;53.046;8.656;2023-02-15T16:36:32;28.83;;;17.67;;
77402;SDS011;66472;53.046;8.656;2023-02-15T16:41:28;30.73;;;18.83;;
77402;SDS011;66472;53.046;8.656;2023-02-15T16:46:25;31.90;;;20.10;;
77402;SDS011;66472;53.046;8.656;2023-02-15T16:51:22;29.27;;;19.43;;
77402;SDS011;66472;53.046;8.656;2023-02-15T16:56:25;30.23;;;18.57;;
77402;SDS011;66472;53.046;8.656;2023-02-15T17:01:22;31.07;;;19.07;;
77402;SDS011;66472;53.046;8.656;2023-02-15T17:16:22;32.03;;;18.60;;
77402;SDS011;66472;53.046;8.656;2023-02-15T17:21:19;25.87;;;18.50;;
77402;SDS011;66472;53.046;8.656;2023-02-15T17:26:18;28.70;;;18.77;;
77402;SDS011;66472;53.046;8.656;2023-02-15T17:31:14;28.70;;;19.27;;
77402;SDS011;66472;53.046;8.656;2023-02-15T17:36:12;30.40;;;20.73;;
77402;SDS011;66472;53.046;8.656;2023-02-15T17:41:08;28.83;;;19.37;;
77402;SDS011;66472;53.046;8.656;2023-02-15T17:46:04;29.27;;;20.53;;
77402;SDS011;66472;53.046;8.656;2023-02-15T17:51:03;36.30;;;20.27;;
77402;SDS011;66472;53.046;8.656;2023-02-15T17:55:58;29.03;;;20.37;;
77402;SDS011;66472;53.046;8.656;2023-02-15T18:00:54;30.90;;;20.63;;
77402;SDS011;66472;53.046;8.656;2023-02-15T18:06:09;31.30;;;20.50;;
77402;SDS011;66472;53.046;8.656;2023-02-15T18:11:23;35.33;;;21.57;;
77402;SDS011;66472;53.046;8.656;2023-02-15T18:16:35;37.80;;;21.63;;
77402;SDS011;66472;53.046;8.656;2023-02-15T18:21:32;32.83;;;21.63;;
77402;SDS011;66472;53.046;8.656;2023-02-15T18:26:27;30.93;;;22.93;;
77402;SDS011;66472;53.046;8.656;2023-02-15T18:31:24;30.77;;;21.60;;
77402;SDS011;66472;53.046;8.656;2023-02-15T18:36:27;31.20;;;21.67;;
77402;SDS011;66472;53.046;8.656;2023-02-15T18:41:23;29.80;;;20.23;;
77402;SDS011;66472;53.046;8.656;2023-02-15T18:46:19;33.47;;;20.97;;
77402;SDS011;66472;53.046;8.656;2023-02-15T18:51:18;34.53;;;22.57;;
77402;SDS011;66472;53.046;8.656;2023-02-15T18:56:14;39.57;;;23.67;;
77402;SDS011;66472;53.046;8.656;2023-02-15T19:01:11;37.53;;;23.70;;
77402;SDS011;66472;53.046;8.656;2023-02-15T19:06:10;38.03;;;23.30;;
77402;SDS011;66472;53.046;8.656;2023-02-15T19:11:10;31.53;;;21.33;;
77402;SDS011;66472;53.046;8.656;2023-02-15T19:16:06;30.60;;;21.90;;
77402;SDS011;66472;53.046;8.656;2023-02-15T19:21:03;32.60;;;23.33;;
77402;SDS011;66472;53.046;8.656;2023-02-15T19:25:59;37.03;;;23.17;;
77402;SDS011;66472;53.046;8.656;2023-02-15T19:30:54;36.40;;;24.47;;
77402;SDS011;66472;53.046;8.656;2023-02-15T19:35:51;35.63;;;24.33;;
77402;SDS011;66472;53.046;8.656;2023-02-15T19:40:48;37.63;;;23.73;;
77402;SDS011;66472;53.046;8.656;2023-02-15T19:45:43;38.50;;;26.03;;
77402;SDS011;66472;53.046;8.656;2023-02-15T19:50:39;39.87;;;24.83;;
77402;SDS011;66472;53.046;8.656;2023-02-15T19:55:35;39.70;;;26.50;;
77402;SDS011;66472;53.046;8.656;2023-02-15T20:00:32;38.47;;;24.90;;
77402;SDS011;66472;53.046;8.656;2023-02-15T20:05:28;38.27;;;26.37;;
77402;SDS011;66472;53.046;8.656;2023-02-15T20:10:28;34.87;;;24.83;;
77402;SDS011;66472;53.046;8.656;2023-02-15T20:15:24;42.13;;;25.00;;
77402;SDS011;66472;53.046;8.656;2023-02-15T20:20:25;45.07;;;26.60;;
77402;SDS011;66472;53.046;8.656;2023-02-15T20:25:24;44.57;;;24.37;;
77402;SDS011;66472;53.046;8.656;2023-02-15T20:30:21;40.97;;;25.57;;
77402;SDS011;66472;53.046;8.656;2023-02-15T20:35:18;38.17;;;25.30;;
77402;SDS011;66472;53.046;8.656;2023-02-15T20:40:15;45.57;;;25.53;;
77402;SDS011;66472;53.046;8.656;2023-02-15T20:45:30;42.57;;;26.73;;
77402;SDS011;66472;53.046;8.656;2023-02-15T20:50:29;37.80;;;24.30;;
77402;SDS011;66472;53.046;8.656;2023-02-15T20:55:26;43.73;;;27.70;;
77402;SDS011;66472;53.046;8.656;2023-02-15T21:00:26;38.03;;;25.77;;
77402;SDS011;66472;53.046;8.656;2023-02-15T21:05:23;39.97;;;25.33;;
77402;SDS011;66472;53.046;8.656;2023-02-15T21:10:22;38.23;;;25.93;;
77402;SDS011;66472;53.046;8.656;2023-02-15T21:15:34;39.57;;;25.07;;
77402;SDS011;66472;53.046;8.656;2023-02-15T21:20:30;41.17;;;25.50;;
77402;SDS011;66472;53.046;8.656;2023-02-15T21:25:28;38.87;;;25.13;;
77402;SDS011;66472;53.046;8.656;2023-02-15T21:30:24;36.40;;;24.93;;
77402;SDS011;66472;53.046;8.656;2023-02-15T21:35:20;40.37;;;27.13;;
77402;SDS011;66472;53.046;8.656;2023-02-15T21:40:16;41.43;;;27.60;;
77402;SDS011;66472;53.046;8.656;2023-02-15T21:45:13;45.10;;;27.10;;
77402;SDS011;66472;53.046;8.656;2023-02-15T21:50:27;45.87;;;26.53;;
77402;SDS011;66472;53.046;8.656;2023-02-15T21:55:41;49.90;;;27.03;;
77402;SDS011;66472;53.046;8.656;2023-02-15T22:00:36;47.93;;;27.90;;
77402;SDS011;66472;53.046;8.656;2023-02-15T22:05:32;47.87;;;28.37;;
77402;SDS011;66472;53.046;8.656;2023-02-15T22:10:28;51.90;;;29.67;;
77402;SDS011;66472;53.046;8.656;2023-02-15T22:15:25;41.37;;;25.53;;
77402;SDS011;66472;53.046;8.656;2023-02-15T22:20:22;43.33;;;27.43;;
77402;SDS011;66472;53.046;8.656;2023-02-15T22:25:18;46.47;;;28.53;;
77402;SDS011;66472;53.046;8.656;2023-02-15T22:30:22;42.63;;;27.10;;
77402;SDS011;66472;53.046;8.656;2023-02-15T22:35:19;41.27;;;26.23;;
77402;SDS011;66472;53.046;8.656;2023-02-15T22:40:16;40.17;;;26.57;;
77402;SDS011;66472;53.046;8.656;2023-02-15T22:45:19;40.20;;;26.97;;
77402;SDS011;66472;53.046;8.656;2023-02-15T22:50:19;42.17;;;26.20;;
77402;SDS011;66472;53.046;8.656;2023-02-15T22:55:15;44.20;;;28.27;;
77402;SDS011;66472;53.046;8.656;2023-02-15T23:00:21;44.90;;;27.60;;
77402;SDS011;66472;53.046;8.656;2023-02-15T23:05:18;42.30;;;26.70;;
77402;SDS011;66472;53.046;8.656;2023-02-15T23:10:14;41.13;;;27.03;;
77402;SDS011;66472;53.046;8.656;2023-02-15T23:15:15;50.90;;;29.87;;
77402;SDS011;66472;53.046;8.656;2023-02-15T23:20:14;49.23;;;28.67;;
77402;SDS011;66472;53.046;8.656;2023-02-15T23:25:09;40.50;;;27.43;;
77402;SDS011;66472;53.046;8.656;2023-02-15T23:30:08;43.83;;;26.80;;
77402;SDS011;66472;53.046;8.656;2023-02-15T23:35:12;44.47;;;28.10;;
77402;SDS011;66472;53.046;8.656;2023-02-15T23:40:18;50.03;;;26.80;;
77402;SDS011;66472;53.046;8.656;2023-02-15T23:45:33;39.20;;;26.33;;
77402;SDS011;66472;53.046;8.656;2023-02-15T23:50:30;37.20;;;25.90;;
77402;SDS011;66472;53.046;8.656;2023-02-15T23:55:33;47.13;;;26.80;;
